• Join FlightAware (Why Join?)
  • Login
  • US Flag 
01:09AM EDT


 

Airport Tracker/Info


-or-


 

Live Flight TrackerFlight Track Log ✈ VOZ1556 ✈ 05-Jul-2013 ✈ YHBA / HVB - YSSY / SYD

Flight Track Log - Related Links

Times and Time Zones

All times are in EDT time to prevent confusion due to time zone crossing. See the VOZ1556 flight status page for this flight to view local times or setup timezone preferences in your user account.

Time Position Orientation Groundspeed Altitude Reporting Facility
EDT Latitude Longitude Course Direction KTS MPH feet Rate Location/Type
10:55PM -25.3742 152.9142 304° West 16,600  Level Aus ATC (Calculated)
10:56PM -25.3260 152.8340 187° South 201 231 2,100 -25,740 Descending FlightAware
10:56PM -25.4227 152.9439 310° West 16,600 2,400 Climbing Aus ATC (Calculated)
10:56PM -25.3450 152.8420 159° South 207 238 2,900 -34,440 Descending FlightAware
10:56PM -25.3530 152.8550 124° Southeast 219 252 3,400 1,920 Climbing FlightAware
10:56PM -25.3600 152.8660 124° Southeast 235 270 3,700 2,100 Climbing FlightAware
10:57PM -25.3780 152.8980 122° Southeast 272 313 4,800 2,700 Climbing FlightAware
10:57PM -25.4010 152.9320 127° Southeast 286 329 6,400 3,180 Climbing FlightAware
10:58PM -25.4190 152.9450 147° Southeast 292 336 7,200 3,000 Climbing FlightAware
10:58PM -25.4460 152.9620 150° Southeast 303 349 8,400 2,880 Climbing FlightAware
10:58PM -25.4770 152.9810 151° Southeast 312 359 9,600 1,500 Climbing FlightAware
10:59PM -25.5170 153.0050 152° Southeast 318 366 9,900 300 Climbing FlightAware
10:59PM -25.5430 153.0210 151° Southeast 318 366 9,900 3,300 Level FlightAware
11:00PM -25.6180 153.0660 152° Southeast 366 421 13,500 3,720 Climbing FlightAware
11:01PM -25.6880 153.1080 152° Southeast 380 437 15,300 2,280 Climbing FlightAware
11:02PM -25.7600 153.1490 153° Southeast 390 449 17,000 2,160 Climbing FlightAware
11:02PM -25.8106 153.1693 153° Southeast 391 450 18,000 2,100 Climbing Aus ATC (RADAR)
11:02PM -25.8290 153.1750 153° Southeast 398 458 18,400 2,280 Climbing FlightAware
11:03PM -25.9000 153.2000 162° South 405 466 19,900 2,280 Climbing FlightAware
11:03PM -25.9531 153.2182 162° South 410 472 21,100 2,400 Climbing Aus ATC (RADAR)
11:04PM -25.9690 153.2240 162° South 408 470 21,500 2,580 Climbing FlightAware
11:04PM -26.0530 153.2530 163° South 399 459 23,500 2,040 Climbing FlightAware
11:05PM -26.1240 153.2780 162° South 411 473 24,400 1,320 Climbing FlightAware
11:06PM -26.2063 153.3058 162° South 418 481 25,400 1,320 Climbing Aus ATC (RADAR)
11:06PM -26.2060 153.3060 162° South 420 483 25,400 1,320 Level FlightAware
11:06PM -26.2720 153.3280 163° South 424 488 26,200 1,500 Climbing FlightAware
11:07PM -26.3480 153.3550 162° South 423 487 27,300 1,380 Climbing FlightAware
11:08PM -26.4218 153.3811 162° South 427 491 28,100 1,020 Climbing Aus ATC (RADAR)
11:08PM -26.4240 153.3810 162° South 429 494 28,000 1,020 Descending FlightAware
11:08PM -26.4885 153.4043 162° South 431 496 28,700 1,020 Climbing Aus ATC (RADAR)
11:08PM -26.5090 153.4110 162° South 437 503 28,800 780 Climbing FlightAware
11:09PM -26.5850 153.4370 163° South 443 510 29,400 1,020 Climbing FlightAware
11:10PM -26.6770 153.4700 162° South 446 513 30,300 1,020 Climbing FlightAware
11:10PM -26.7360 153.4840 168° South 445 512 30,700 780 Climbing FlightAware
11:11PM -26.8090 153.4740 187° South 446 513 31,200 1,020 Climbing FlightAware
11:12PM -26.8890 153.4550 192° South 446 513 32,000 1,260 Climbing FlightAware
11:12PM -26.9790 153.4350 191° South 440 506 33,000 1,380 Climbing FlightAware
11:13PM -27.0600 153.4160 192° South 433 498 34,000 1,200 Climbing FlightAware
11:14PM -27.1470 153.3970 191° South 431 496 34,700 900 Climbing FlightAware
11:14PM -27.2250 153.3790 192° South 432 497 35,300 840 Climbing FlightAware
11:15PM -27.2920 153.3632 192° South 434 499 35,800 660 Climbing Aus ATC (RADAR)
11:15PM -27.3080 153.3600 192° South 434 499 35,800 600 Level FlightAware
11:16PM -27.3860 153.3350 196° South 430 495 36,300 840 Climbing FlightAware
11:16PM -27.4500 153.3000 206° Southwest 423 487 36,900 840 Climbing FlightAware
11:17PM -27.5203 153.2584 206° Southwest 427 491 37,400 600 Climbing Aus ATC (RADAR)
11:17PM -27.5500 153.2420 206° Southwest 426 490 37,500 420 Climbing FlightAware
11:18PM -27.6190 153.2010 208° Southwest 430 495 37,800 480 Climbing FlightAware
11:19PM -27.6789 153.1655 208° Southwest 442 509 38,100 180 Climbing Aus ATC (RADAR)
11:19PM -27.7090 153.1490 208° Southwest 435 501 38,000 -120 Descending FlightAware
11:19PM -27.7710 153.1120 208° Southwest 444 511 38,000  Level FlightAware
11:20PM -27.8550 153.0630 207° Southwest 445 512 38,000  Level FlightAware
11:21PM -27.9360 153.0150 208° Southwest 445 512 38,000  Level FlightAware
11:22PM -28.0140 152.9690 208° Southwest 445 512 38,000  Level FlightAware
11:22PM -28.0960 152.9240 206° Southwest 445 512 38,000  Level FlightAware
11:23PM -28.1690 152.8900 202° Southwest 448 516 38,000  Level FlightAware
11:24PM -28.2400 152.8580 202° Southwest 445 512 38,000 120 Level FlightAware
11:24PM -28.2432 152.8559 202° Southwest 448 516 38,100 120 Climbing Aus ATC (RADAR)
11:24PM -28.3097 152.8260 202° Southwest 443 510 38,100 -180 Level Aus ATC (RADAR)
11:24PM -28.3250 152.8200 202° Southwest 443 510 38,000 -180 Descending FlightAware
11:25PM -28.3952 152.7878 202° Southwest 441 507 38,000  Level Aus ATC (RADAR)
11:25PM -28.3950 152.7890 202° Southwest 444 511 38,000  Level FlightAware
11:26PM -28.4623 152.7579 202° Southwest 444 511 38,000  Level Aus ATC (RADAR)
11:26PM -28.4690 152.7560 202° Southwest 445 512 38,000  Level FlightAware
11:26PM -28.5460 152.7210 202° Southwest 443 510 38,000  Level FlightAware
11:27PM -28.6052 152.6938 202° Southwest 442 509 38,000  Level Aus ATC (RADAR)
11:27PM -28.6220 152.6870 202° Southwest 444 511 38,000  Level FlightAware
11:28PM -28.7080 152.6480 202° Southwest 444 511 38,000  Level FlightAware
11:28PM -28.7775 152.6176 202° Southwest 443 510 38,000  Level Aus ATC (RADAR)
11:28PM -28.7920 152.6110 202° Southwest 441 507 38,000  Level FlightAware
11:29PM -28.8640 152.5780 202° Southwest 439 505 38,000  Level FlightAware
11:30PM -28.9530 152.5380 201° Southwest 436 502 38,000  Level FlightAware
11:30PM -29.0080 152.5130 202° Southwest 438 504 38,000  Level FlightAware
11:31PM -29.0770 152.4820 201° Southwest 439 505 38,000  Level FlightAware
11:32PM -29.1660 152.4420 201° Southwest 440 506 38,000  Level FlightAware
11:32PM -29.2350 152.4110 201° Southwest 439 505 38,000  Level FlightAware
11:33PM -29.3110 152.3760 202° Southwest 439 505 38,000  Level FlightAware
11:34PM -29.3723 152.3488 202° Southwest 439 505 38,000  Level Aus ATC (RADAR)
11:34PM -29.3860 152.3420 202° Southwest 437 503 38,000  Level FlightAware
11:34PM -29.4700 152.3040 201° Southwest 438 504 38,000  Level FlightAware
11:35PM -29.5470 152.2680 202° Southwest 441 507 38,000  Level FlightAware
11:36PM -29.6320 152.2300 201° Southwest 442 509 38,000  Level FlightAware
11:36PM -29.7020 152.1976 201° Southwest 443 510 38,000  Level Aus ATC (RADAR)
11:37PM -29.7360 152.1830 201° Southwest 442 509 38,000  Level FlightAware
11:37PM -29.7900 152.1580 202° Southwest 443 510 38,000  Level FlightAware
11:38PM -29.8910 152.1120 202° Southwest 444 511 38,000  Level FlightAware
11:39PM -29.9540 152.0840 201° Southwest 444 511 38,000  Level FlightAware
11:39PM -30.0120 152.0580 201° Southwest 444 511 38,000  Level FlightAware
11:40PM -30.0710 152.0320 201° Southwest 444 511 38,000  Level FlightAware
11:41PM -30.1967 151.9707 201° Southwest 442 509 38,000  Level Aus ATC (RADAR)
11:41PM -30.1490 151.9970 201° Southwest 444 511 38,000  Level FlightAware
11:41PM -30.2080 151.9710 201° Southwest 444 511 38,000  Level FlightAware
11:42PM -30.3305 151.9084 201° Southwest 445 512 38,000  Level Aus ATC (RADAR)
11:42PM -30.2670 151.9450 201° Southwest 444 511 38,000  Level FlightAware
11:43PM -30.4072 151.8735 201° Southwest 445 512 38,000  Level Aus ATC (RADAR)
11:43PM -30.3450 151.9100 201° Southwest 444 511 38,000  Level FlightAware
11:43PM -30.4030 151.8840 201° Southwest 444 511 38,000  Level FlightAware
11:44PM -30.5579 151.8022 201° Southwest 438 504 38,000  Level Aus ATC (RADAR)
11:44PM -30.5750 151.7940 201° Southwest 432 497 38,000  Level FlightAware
11:45PM -30.6420 151.7630 202° Southwest 432 497 38,000  Level FlightAware
11:45PM -30.7086 151.7319 202° Southwest 439 505 38,000  Level Aus ATC (RADAR)
11:46PM -30.7260 151.7240 202° Southwest 431 496 38,000  Level FlightAware
11:46PM -30.7840 151.6960 203° Southwest 431 496 38,000  Level FlightAware
11:47PM -30.8410 151.6700 203° Southwest 431 496 38,000  Level FlightAware
11:47PM -30.8730 151.6549 203° Southwest 423 487 38,000  Level Aus ATC (RADAR)
11:48PM -30.9160 151.6340 202° Southwest 431 496 38,000  Level FlightAware
11:48PM -30.9730 151.6070 202° Southwest 431 496 38,000  Level FlightAware
11:49PM -31.0989 151.5486 202° Southwest 419 482 38,000  Level Aus ATC (RADAR)
11:49PM -31.0480 151.5720 202° Southwest 431 496 38,000  Level FlightAware
11:50PM -31.1830 151.5090 202° Southwest 38,000  Level FlightAware
11:50PM -31.2470 151.4790 202° Southwest 420 483 38,000  Level FlightAware
11:51PM -31.3280 151.4400 202° Southwest 424 488 38,000  Level FlightAware
11:52PM -31.3950 151.4080 202° Southwest 421 484 38,000  Level FlightAware
11:52PM -31.4650 151.3770 202° Southwest 423 487 38,000  Level FlightAware
11:52PM -31.4776 151.3719 202° Southwest 418 481 38,000  Level Aus ATC (RADAR)
11:53PM -31.5422 151.3428 202° Southwest 423 487 38,000  Level Aus ATC (RADAR)
11:53PM -31.5410 151.3440 202° Southwest 426 490 38,000  Level FlightAware
11:54PM -31.6070 151.3140 202° Southwest 425 489 38,000  Level FlightAware
11:54PM -31.6158 151.3104 202° Southwest 422 486 38,000  Level Aus ATC (RADAR)
11:54PM -31.6850 151.2790 201° Southwest 424 488 38,000  Level FlightAware
11:55PM -31.7640 151.2440 201° Southwest 416 479 38,000  Level FlightAware
11:56PM -31.8390 151.2100 201° Southwest 422 486 38,000  Level FlightAware
11:56PM -31.9170 151.1740 201° Southwest 430 495 38,000  Level FlightAware
11:57PM -32.0010 151.1380 201° Southwest 429 494 38,000  Level Aus ATC (RADAR)
11:57PM -31.9970 151.1380 201° Southwest 435 501 38,000 -1,740 Level FlightAware
11:58PM -32.0674 151.1075 201° Southwest 438 504 37,000 -1,800 Descending Aus ATC (RADAR)
11:58PM -32.0740 151.1040 201° Southwest 442 509 36,900 -2,520 Descending FlightAware
11:58PM -32.1450 151.0720 201° Southwest 452 520 35,300 -3,000 Descending FlightAware
11:59PM -32.2250 151.0360 201° Southwest 461 531 33,000 -3,660 Descending FlightAware
11:59PM -32.2336 151.0335 201° Southwest 459 528 32,700 -2,820 Descending Aus ATC (RADAR)
12:00AM -32.3150 150.9960 201° Southwest 457 526 30,900 -2,460 Descending FlightAware
12:00AM -32.3830 150.9650 201° Southwest 446 513 29,500 -2,460 Descending FlightAware
12:01AM -32.4640 150.9300 200° South 439 505 27,800 -2,640 Descending FlightAware
12:02AM -32.5283 150.9191 200° South 437 503 26,400 -2,400 Descending Aus ATC (RADAR)
12:02AM -32.5820 150.9270 200° South 455 524 25,600 -2,400 Descending FlightAware
12:03AM -32.6530 150.9400 171° South 457 526 24,000 -2,400 Descending FlightAware
12:03AM -32.7480 150.9570 171° South 438 504 22,400 -2,220 Descending FlightAware
12:04AM -32.8188 150.9696 171° South 442 509 21,100 -2,100 Descending Aus ATC (RADAR)
12:04AM -32.8290 150.9710 171° South 439 505 21,000 -2,280 Descending FlightAware
12:05AM -32.8911 150.9824 171° South 425 489 19,800 -2,280 Descending Aus ATC (RADAR)
12:05AM -32.9100 150.9860 171° South 420 483 19,500 -1,440 Descending FlightAware
12:05AM -32.9830 150.9990 172° South 403 464 18,600 -1,500 Descending FlightAware
12:06AM -33.0610 151.0130 171° South 373 429 17,400 -1,860 Descending FlightAware
12:07AM -33.1330 151.0260 171° South 358 412 16,000 -2,100 Descending FlightAware
12:07AM -33.2070 151.0383 171° South 361 415 14,500 -1,920 Descending Aus ATC (RADAR)
12:08AM -33.2420 151.0450 171° South 347 399 13,900 -1,740 Descending FlightAware
12:09AM -33.3050 151.0570 171° South 333 383 12,700 -1,740 Descending FlightAware
12:09AM -33.3550 151.0670 171° South 323 372 11,800 -1,860 Descending FlightAware
12:09AM -33.3610 151.0676 171° South 325 374 11,600 -1,680 Descending Aus ATC (RADAR)
12:10AM -33.4230 151.0800 171° South 310 357 10,500 -1,560 Descending FlightAware
12:10AM -33.4540 151.0860 171° South 305 351 9,900 -1,500 Descending FlightAware
12:10AM -33.4700 151.0890 171° South 303 349 9,600 -1,560 Descending FlightAware
12:11AM -33.5100 151.0970 171° South 298 343 8,800 -1,740 Descending FlightAware
12:11AM -33.5280 151.1000 172° South 296 341 8,500 -1,680 Descending FlightAware
12:12AM -33.5670 151.1070 171° South 295 339 7,700 -1,500 Descending FlightAware
12:12AM -33.5890 151.1120 169° South 294 338 7,300 -1,560 Descending FlightAware
12:12AM -33.6290 151.1190 172° South 290 334 6,500 -1,260 Descending FlightAware
12:13AM -33.6700 151.1270 171° South 283 326 6,100 -480 Descending FlightAware
12:13AM -33.6990 151.1330 170° South 279 321 6,100  Level FlightAware
12:14AM -33.7110 151.1350 172° South 280 322 6,100  Level FlightAware
12:14AM -33.7490 151.1450 172° South 291 335 6,100 -180 Level FlightAware
12:14AM -33.7602 151.1518 172° South 281 323 6,000  Descending Aus ATC (RADAR)
12:14AM -33.7570 151.1500 153° Southeast 299 344 6,100 300 Climbing FlightAware
12:14AM -33.7710 151.1710 129° Southeast 307 353 6,100  Level FlightAware
12:15AM -33.7760 151.1860 112° Southeast 304 350 6,100 -120 Level FlightAware
12:15AM -33.7900 151.2629 112° Southeast 302 348 6,000  Descending Aus ATC (RADAR)
12:15AM -33.7890 151.2590 112° Southeast 313 360 6,100 120 Climbing FlightAware
12:16AM -33.8000 151.3170 103° East 316 364 6,100 -660 Level FlightAware
12:16AM -33.8106 151.3823 103° East 296 341 5,500 -1,500 Descending Aus ATC (RADAR)
12:17AM -33.8160 151.4090 103° East 298 343 4,900 -900 Descending FlightAware
12:17AM -33.8250 151.4620 102° East 271 312 4,700 -540 Descending FlightAware
12:18AM -33.8340 151.4950 108° East 261 300 4,400 -840 Descending FlightAware
12:18AM -33.8530 151.5110 145° Southeast 233 268 4,100 -960 Descending FlightAware
12:19AM -33.8790 151.4930 210° Southwest 185 213 3,500 -840 Descending FlightAware
12:19AM -33.8790 151.4830 270° West 185 213 3,500 -480 Level FlightAware
12:19AM -33.8760 151.4670 283° West 182 209 3,300 -540 Descending FlightAware
12:19AM -33.8770 151.4460 267° West 184 212 3,200 -240 Descending FlightAware
12:20AM -33.8830 151.4160 256° West 191 220 3,100 -120 Descending FlightAware
12:20AM -33.8910 151.3860 252° West 187 215 3,100 -240 Level FlightAware
12:21AM -33.8970 151.3600 254° West 192 221 2,900 -660 Descending FlightAware
12:21AM -33.9040 151.3300 254° West 190 219 2,500 -900 Descending FlightAware
12:22AM -33.9100 151.3050 254° West 180 207 2,100 -1,080 Descending FlightAware
12:22AM -33.9140 151.2910 251° West 168 193 1,800 -900 Descending FlightAware
12:22AM -33.9190 151.2700 254° West 142 163 1,500 -780 Descending FlightAware
12:23AM -33.9240 151.2490 254° West 118 136 1,100 -960 Descending FlightAware
12:23AM -33.9243 151.2470 254° West 127 146 1,000 -600 Descending Aus ATC (RADAR)
12:23AM -33.9280 151.2310 255° West 115 132 800 -480 Descending FlightAware
12:24AM -33.9320 151.2150 253° West 119 137 600 -600 Descending FlightAware
12:24AM -33.9340 151.2050 256° West 122 140 400 -780 Descending FlightAware
12:24AM -33.9380 151.1890 253° West 122 140 100 -360 Descending FlightAware
12:25AM -33.9410 151.1750 256° West 57 66 100  Level FlightAware
12:25AM -33.9400 151.1720 292° West 12 14 -240 Descending FlightAware